Webcam & Weather

This webcam image will automatically refresh every 15 seconds.


METAR and TAF for EGLL Heathrow (12 Nautical Miles East of White Waltham)

Available data for EGLL from the past hour
LONDON/HEATHROW
Metar
EGLL 181020Z AUTO 07008KT 030V100 7000 NCD 17/10 Q1023

10:20 UTC

Wind: 70° 8kt

Visibility: 7000 m

Sky:

Temp: 17 deg C / 62.6 deg F

Dewpoint: 10 deg C / 50 deg F

Pressure: 1023 hPa

TAF
TAF EGLL 180455Z 1806/1912 07007KT 2000 BR SCT004 BECMG 1806/1809 5000 HZ PROB30 TEMPO 1806/1808 BKN004 BECMG 1809/1812 CAVOK PROB30 TEMPO 1902/1907 7000

Play 24 hour timelapse | Play 30 day timelapse

Comments are closed.